KGYY

Gary / Chicago International Airport

Gary, Indiana, USA
METAR KGYY 260245Z 22009KT 10SM FEW250 05/M05 A3009
Observed Flight Rules
Feb-26 @ 02:45 UTC (35 minutes ago) Visual Flight Rules
Wind Visibility Clouds
220° at 9 knots 10 miles
  • Few at 25,000' AGL
Temperatures Readings
Current 5°C / 41°F
Dewpoint -5°C / 23°F
Humidity 49%
Altimeter 30.09" Hg
Pressure 1019 hPa
Elevation 180
METAR KGYY 260245Z 22009KT 10SM FEW250 05/M05 A3009
Observed Flight Rules
Feb-26 @ 02:45 UTC
(35 minutes ago)
VFR
Wind Visibility
220° at 9 knots 10 miles
Clouds
  • Few at 25,000' AGL
Temperature Dewpoint
5°C / 41°F -5°C / 23°F
Humidity Altimeter Pressure
49% 30.09" Hg 1019 hPa